createdAt,value
2022-09-06T00:02:21.646Z,99189.69
2022-09-06T00:04:50.139Z,99192.63
2022-09-06T00:07:18.250Z,99197.38
2022-09-06T00:09:46.065Z,99199.22
2022-09-06T00:12:15.333Z,99192.97
2022-09-06T00:14:43.158Z,99189.25
2022-09-06T00:17:11.346Z,99194.47
2022-09-06T00:19:39.346Z,99183.13
2022-09-06T00:22:07.320Z,99190.94
2022-09-06T00:24:37.132Z,99182.69
2022-09-06T00:27:05.245Z,99188.63
2022-09-06T00:29:35.508Z,99190.19
2022-09-06T00:32:03.947Z,99182.09
2022-09-06T00:34:32.113Z,99183.97
2022-09-06T00:37:00.038Z,99190.88
2022-09-06T00:39:28.034Z,99181.00
2022-09-06T00:41:55.950Z,99190.56
2022-09-06T00:44:24.399Z,99197.94
2022-09-06T00:46:55.516Z,99194.50
2022-09-06T00:49:27.127Z,99188.41
2022-09-06T00:52:00.240Z,99197.50
2022-09-06T00:54:28.894Z,99199.38
2022-09-06T00:56:58.570Z,99195.78
2022-09-06T00:59:27.246Z,99199.84
2022-09-06T01:01:56.654Z,99189.66
2022-09-06T01:04:24.765Z,99192.44
2022-09-06T01:07:02.521Z,99195.94
2022-09-06T01:09:45.340Z,99194.25
2022-09-06T01:12:27.270Z,99192.19
2022-09-06T01:15:10.356Z,99190.03
2022-09-06T01:17:55.726Z,99191.72
2022-09-06T01:20:54.022Z,99194.56
2022-09-06T01:23:54.851Z,99188.59
2022-09-06T01:26:54.113Z,99189.38
2022-09-06T01:29:30.823Z,99196.09
2022-09-06T01:32:04.704Z,99195.94
2022-09-06T01:34:38.701Z,99189.22
2022-09-06T01:37:11.214Z,99185.63
2022-09-06T01:39:40.865Z,99187.38
2022-09-06T01:42:12.568Z,99190.34
2022-09-06T01:44:45.446Z,99197.53
2022-09-06T01:47:23.089Z,99185.94
2022-09-06T01:50:21.686Z,99181.56
2022-09-06T01:53:00.162Z,99179.69
2022-09-06T01:55:32.777Z,99177.81
2022-09-06T01:58:25.425Z,99183.78
2022-09-06T02:00:59.853Z,99180.25
2022-09-06T02:03:33.835Z,99178.22
2022-09-06T02:06:08.291Z,99183.75
2022-09-06T02:08:40.434Z,99184.84
2022-09-06T02:11:10.366Z,99181.09
2022-09-06T02:13:40.934Z,99179.16
2022-09-06T02:16:11.466Z,99176.06
2022-09-06T02:18:43.745Z,99174.50
2022-09-06T02:21:15.411Z,99179.84
2022-09-06T02:23:45.358Z,99186.59
2022-09-06T02:26:18.459Z,99181.56
2022-09-06T02:28:46.645Z,99185.00
2022-09-06T02:31:20.924Z,99181.09
2022-09-06T02:33:50.312Z,99187.47
2022-09-06T02:36:19.019Z,99180.00
2022-09-06T02:38:47.666Z,99178.72
2022-09-06T02:41:18.418Z,99184.69
2022-09-06T02:43:46.704Z,99188.28
2022-09-06T02:46:16.762Z,99178.44
2022-09-06T02:48:44.602Z,99184.38
2022-09-06T02:51:12.666Z,99176.09
2022-09-06T02:53:40.488Z,99176.72
2022-09-06T02:56:08.520Z,99176.41
2022-09-06T02:58:36.807Z,99173.09
2022-09-06T03:01:05.135Z,99163.06
2022-09-06T03:03:34.320Z,99167.00
2022-09-06T03:06:02.176Z,99172.63
2022-09-06T03:08:33.581Z,99177.34
2022-09-06T03:11:02.075Z,99172.13
2022-09-06T03:13:30.264Z,99173.41
2022-09-06T03:16:00.093Z,99182.19
2022-09-06T03:18:29.830Z,99178.44
2022-09-06T03:20:59.772Z,99175.44
2022-09-06T03:23:29.229Z,99174.47
2022-09-06T03:25:57.545Z,99168.53
2022-09-06T03:28:25.521Z,99167.78
2022-09-06T03:30:53.807Z,99168.22
2022-09-06T03:33:21.913Z,99167.91
2022-09-06T03:35:51.644Z,99174.66
2022-09-06T03:38:21.567Z,99171.84
2022-09-06T03:40:50.119Z,99168.53
2022-09-06T03:43:18.634Z,99169.03
2022-09-06T03:45:47.866Z,99169.34
2022-09-06T03:48:16.708Z,99182.66
2022-09-06T03:50:46.532Z,99250.66
2022-09-06T03:53:15.064Z,99273.44
2022-09-06T03:55:47.053Z,99197.72
2022-09-06T03:58:15.871Z,99222.59
2022-09-06T04:00:43.737Z,99219.59
2022-09-06T04:03:11.969Z,99228.81
2022-09-06T04:05:39.821Z,99209.63
2022-09-06T04:08:08.022Z,99204.81
2022-09-06T04:10:35.864Z,99205.06
2022-09-06T04:13:05.007Z,99200.28
2022-09-06T04:15:32.832Z,99212.59
2022-09-06T04:18:00.630Z,99203.19
2022-09-06T04:20:28.478Z,99205.13
2022-09-06T04:22:56.258Z,99200.50
2022-09-06T04:25:24.039Z,99191.00
2022-09-06T04:27:52.075Z,99184.34
2022-09-06T04:30:21.314Z,99181.31
2022-09-06T04:32:49.123Z,99167.47
2022-09-06T04:35:16.990Z,99177.44
2022-09-06T04:37:44.795Z,99182.03
2022-09-06T04:40:13.402Z,99166.38
2022-09-06T04:42:41.177Z,99160.50
2022-09-06T04:45:10.387Z,99176.38
2022-09-06T04:47:39.523Z,99186.00
2022-09-06T04:50:08.318Z,99187.63
2022-09-06T04:52:36.187Z,99201.13
2022-09-06T04:55:04.082Z,99181.59
2022-09-06T04:57:31.884Z,99167.97
2022-09-06T04:59:59.716Z,99177.81
2022-09-06T05:02:27.604Z,99180.72
2022-09-06T05:04:57.146Z,99183.25
2022-09-06T05:07:24.982Z,99181.81
2022-09-06T05:09:52.838Z,99177.81
2022-09-06T05:12:20.605Z,99175.06
2022-09-06T05:14:48.417Z,99180.34
2022-09-06T05:17:16.249Z,99190.38
2022-09-06T05:19:44.240Z,99185.00
2022-09-06T05:22:13.379Z,99178.09
2022-09-06T05:24:41.218Z,99187.44
2022-09-06T05:27:09.429Z,99198.63
2022-09-06T05:29:37.260Z,99195.72
2022-09-06T05:32:05.406Z,99186.50
2022-09-06T05:34:33.307Z,99190.47
2022-09-06T05:37:01.266Z,99202.44
2022-09-06T05:39:30.498Z,99195.53
2022-09-06T05:41:58.838Z,99192.81
2022-09-06T05:44:26.629Z,99183.31
2022-09-06T05:46:54.404Z,99189.25
2022-09-06T05:49:22.225Z,99189.97
2022-09-06T05:51:52.489Z,99174.81
2022-09-06T05:54:20.336Z,99180.53
2022-09-06T05:56:49.799Z,99167.69
2022-09-06T05:59:17.648Z,99172.06
2022-09-06T06:01:49.811Z,99170.66
2022-09-06T06:04:19.474Z,99168.81
2022-09-06T06:06:49.000Z,99157.81
2022-09-06T06:09:17.596Z,99154.78
2022-09-06T06:11:45.557Z,99172.88
2022-09-06T06:14:14.631Z,99171.59
2022-09-06T06:16:42.457Z,99175.81
2022-09-06T06:19:10.359Z,99177.84
2022-09-06T06:21:39.105Z,99177.44
2022-09-06T06:24:07.574Z,99180.91
2022-09-06T06:26:37.097Z,99185.19
2022-09-06T06:29:08.168Z,99189.16
2022-09-06T06:31:39.052Z,99185.47
2022-09-06T06:34:07.318Z,99184.09
2022-09-06T06:36:36.570Z,99194.84
2022-09-06T06:39:06.658Z,99198.34
2022-09-06T06:41:34.515Z,99191.84
2022-09-06T06:44:04.053Z,99187.75
2022-09-06T06:46:34.094Z,99192.84
2022-09-06T06:49:03.246Z,99186.44
2022-09-06T06:51:33.188Z,99188.16
2022-09-06T06:54:00.944Z,99194.38
2022-09-06T06:56:30.634Z,99193.19
2022-09-06T06:59:00.463Z,99198.44
2022-09-06T07:01:30.421Z,99202.78
2022-09-06T07:03:58.604Z,99198.78
2022-09-06T07:09:18.124Z,99201.13
2022-09-06T07:11:46.269Z,99207.66
2022-09-06T07:14:14.077Z,99199.94
2022-09-06T07:16:42.044Z,99215.75
2022-09-06T07:22:02.900Z,99207.91
2022-09-06T07:24:33.122Z,99215.63
2022-09-06T07:29:48.700Z,99223.91
2022-09-06T07:32:16.553Z,99222.41
2022-09-06T07:34:44.409Z,99212.09
2022-09-06T07:37:13.612Z,99211.81
2022-09-06T07:39:41.678Z,99210.63
2022-09-06T07:42:10.112Z,99204.69
2022-09-06T07:44:37.956Z,99211.91
2022-09-06T07:55:31.234Z,99215.63
2022-09-06T07:57:59.061Z,99212.75
2022-09-06T08:00:27.256Z,99214.84
2022-09-06T08:02:55.106Z,99215.63
2022-09-06T08:11:00.261Z,99225.63
2022-09-06T08:13:28.341Z,99224.69
2022-09-06T08:15:59.419Z,99229.78
2022-09-06T08:18:27.452Z,99234.88
2022-09-06T08:20:55.423Z,99227.09
2022-09-06T08:23:24.562Z,99227.25
2022-09-06T08:25:59.170Z,99221.88
2022-09-06T08:28:28.960Z,99222.69
2022-09-06T08:30:57.242Z,99220.19
2022-09-06T08:33:25.719Z,99220.03
2022-09-06T08:35:57.506Z,99228.13
2022-09-06T08:38:26.674Z,99220.59
2022-09-06T08:40:56.381Z,99225.97
2022-09-06T08:43:24.328Z,99221.16
2022-09-06T08:45:57.364Z,99231.44
2022-09-06T08:48:28.550Z,99227.44
2022-09-06T08:51:11.893Z,99218.16
2022-09-06T08:53:46.467Z,99226.47
2022-09-06T08:56:17.915Z,99227.00
2022-09-06T08:58:59.778Z,99217.44
2022-09-06T09:01:35.671Z,99218.19
2022-09-06T09:04:07.304Z,99215.97
2022-09-06T09:06:36.272Z,99211.13
2022-09-06T09:09:07.864Z,99212.59
2022-09-06T09:11:37.955Z,99204.13
2022-09-06T09:14:07.312Z,99202.91
2022-09-06T09:16:35.452Z,99202.44
2022-09-06T09:19:06.056Z,99189.31
2022-09-06T09:21:37.503Z,99191.19
2022-09-06T09:24:09.645Z,99193.59
2022-09-06T09:26:48.905Z,99184.28
2022-09-06T09:29:17.281Z,99187.25
2022-09-06T09:31:53.762Z,99188.03
2022-09-06T09:34:33.291Z,99175.09
2022-09-06T09:40:14.095Z,99166.81
2022-09-06T09:42:42.042Z,99168.06
2022-09-06T09:45:26.527Z,99171.47
2022-09-06T09:47:54.846Z,99169.19
2022-09-06T09:50:27.365Z,99179.81
2022-09-06T09:52:55.653Z,99173.50
2022-09-06T09:55:27.123Z,99164.50
2022-09-06T09:57:56.279Z,99175.78
2022-09-06T10:00:36.319Z,99174.13
2022-09-06T10:03:13.199Z,99172.69
2022-09-06T10:05:42.697Z,99167.31
2022-09-06T10:08:13.374Z,99172.28
2022-09-06T10:10:47.469Z,99165.97
2022-09-06T10:13:21.013Z,99158.69
2022-09-06T10:15:49.943Z,99158.19
2022-09-06T10:18:29.706Z,99153.63
2022-09-06T10:21:01.729Z,99142.19
2022-09-06T10:26:39.795Z,99139.72
2022-09-06T10:29:10.340Z,99140.41
2022-09-06T10:31:57.239Z,99145.44
2022-09-06T10:34:46.943Z,99134.88
2022-09-06T10:37:26.252Z,99142.97
2022-09-06T10:39:59.019Z,99136.50
2022-09-06T10:42:36.750Z,99133.50
2022-09-06T10:45:18.094Z,99123.84
2022-09-06T10:47:57.617Z,99135.84
2022-09-06T10:50:34.617Z,99123.81
2022-09-06T10:53:10.659Z,99102.19
2022-09-06T10:55:43.557Z,99123.94
2022-09-06T10:58:19.222Z,99112.47
2022-09-06T11:00:50.720Z,99114.53
2022-09-06T11:06:17.261Z,99115.81
2022-09-06T11:08:53.462Z,99108.66
2022-09-06T11:11:35.467Z,99112.06
2022-09-06T11:14:10.560Z,99112.00
2022-09-06T11:16:46.791Z,99106.22
2022-09-06T11:19:21.598Z,99123.28
2022-09-06T11:22:34.012Z,99114.06
2022-09-06T11:25:32.371Z,99112.50
2022-09-06T11:28:03.961Z,99101.38
2022-09-06T11:30:33.267Z,99105.56
2022-09-06T11:33:14.218Z,99108.88
2022-09-06T11:35:44.993Z,99103.16
2022-09-06T11:38:24.285Z,99095.03
2022-09-06T11:40:58.905Z,99093.84
2022-09-06T11:43:46.149Z,99082.00
2022-09-06T11:46:48.456Z,99084.78
2022-09-06T11:49:35.276Z,99089.16
2022-09-06T11:52:03.673Z,99088.81
2022-09-06T11:54:43.752Z,99075.25
2022-09-06T11:57:16.570Z,99082.50
2022-09-06T11:59:54.818Z,99078.16
2022-09-06T12:02:37.850Z,99084.59
2022-09-06T12:05:19.433Z,99093.03
2022-09-06T12:08:26.757Z,99088.06
2022-09-06T12:11:23.027Z,99079.56
2022-09-06T12:14:04.052Z,99063.41
2022-09-06T12:17:19.992Z,99068.50
2022-09-06T12:19:49.665Z,99063.25
2022-09-06T12:23:04.076Z,99058.47
2022-09-06T12:25:57.455Z,99063.03
2022-09-06T12:28:41.112Z,99067.41
2022-09-06T12:31:31.845Z,99055.22
2022-09-06T12:34:00.215Z,99057.09
2022-09-06T12:36:32.096Z,99054.44
2022-09-06T12:39:01.796Z,99056.88
2022-09-06T12:41:42.953Z,99058.63
2022-09-06T12:44:12.023Z,99047.63
2022-09-06T12:46:46.428Z,99044.19
2022-09-06T12:49:22.349Z,99044.84
2022-09-06T12:51:50.451Z,99034.44
2022-09-06T12:54:21.818Z,99040.16
2022-09-06T12:56:51.812Z,99033.03
2022-09-06T12:59:22.036Z,99030.03
2022-09-06T13:01:58.911Z,99036.16
2022-09-06T13:04:39.964Z,99030.81
2022-09-06T13:07:13.024Z,99026.16
2022-09-06T13:09:46.879Z,99025.00
2022-09-06T13:12:24.846Z,99018.88
2022-09-06T13:14:54.658Z,99023.78
2022-09-06T13:17:26.353Z,99006.97
2022-09-06T13:19:54.616Z,99013.75
2022-09-06T13:22:41.688Z,99004.75
2022-09-06T13:25:24.265Z,99005.34
2022-09-06T13:27:57.717Z,99001.81
2022-09-06T13:30:58.332Z,98999.31
2022-09-06T13:33:27.579Z,99005.13
2022-09-06T13:36:16.819Z,98991.00
2022-09-06T13:38:46.073Z,99006.94
2022-09-06T13:41:38.002Z,98995.06
2022-09-06T13:44:17.687Z,99003.53
2022-09-06T13:46:45.702Z,98996.69
2022-09-06T13:49:22.489Z,98998.13
2022-09-06T13:51:50.759Z,98991.81
2022-09-06T13:54:18.613Z,98994.63
2022-09-06T14:09:16.565Z,98975.06
2022-09-06T14:11:48.222Z,98974.88
2022-09-06T14:14:17.556Z,98981.47
2022-09-06T14:19:57.147Z,98977.44
2022-09-06T14:22:25.542Z,98981.00
2022-09-06T14:24:55.229Z,98980.22
2022-09-06T14:27:48.944Z,98961.53
2022-09-06T14:30:17.255Z,98965.81
2022-09-06T14:32:45.966Z,98967.88
2022-09-06T14:35:13.759Z,98961.38
2022-09-06T14:37:43.021Z,98957.97
2022-09-06T14:40:12.399Z,98952.44
2022-09-06T14:58:40.758Z,98936.75
2022-09-06T15:23:32.257Z,98914.81
2022-09-06T15:42:14.601Z,98903.56
2022-09-06T16:04:31.574Z,98898.31
2022-09-06T16:07:00.707Z,98895.75
2022-09-06T16:15:12.352Z,98887.00
2022-09-06T16:17:40.267Z,98888.91
2022-09-06T16:20:08.572Z,98895.94
2022-09-06T16:22:38.017Z,98892.91
2022-09-06T16:25:11.602Z,98893.03
2022-09-06T16:30:42.385Z,98898.75
2022-09-06T16:33:10.352Z,98900.13
2022-09-06T16:35:40.302Z,98891.22
2022-09-06T16:38:10.503Z,98893.81
2022-09-06T16:40:38.353Z,98897.66
2022-09-06T16:43:06.363Z,98892.53
2022-09-06T16:45:34.192Z,98891.16
2022-09-06T16:48:01.994Z,98888.19
2022-09-06T16:50:29.897Z,98893.91
2022-09-06T16:53:01.438Z,98889.44
2022-09-06T16:55:32.836Z,98891.94
2022-09-06T16:58:00.600Z,98884.25
2022-09-06T17:00:28.565Z,98886.47
2022-09-06T17:02:56.731Z,98888.44
2022-09-06T17:05:24.617Z,98884.72
2022-09-06T17:07:52.588Z,98893.97
2022-09-06T17:10:20.377Z,98880.13
2022-09-06T17:12:49.568Z,98889.78
2022-09-06T17:15:17.520Z,98883.75
2022-09-06T17:17:45.159Z,98886.97
2022-09-06T17:20:12.972Z,98876.13
2022-09-06T17:22:40.788Z,98884.56
2022-09-06T17:25:08.846Z,98893.03
2022-09-06T17:27:36.624Z,98886.66
2022-09-06T17:30:06.632Z,98886.38
2022-09-06T17:32:36.536Z,98885.47
2022-09-06T17:35:04.796Z,98876.75
2022-09-06T17:37:33.524Z,98870.81
2022-09-06T17:40:01.600Z,98871.59
2022-09-06T17:42:30.572Z,98875.94
2022-09-06T17:44:58.422Z,98876.53
2022-09-06T17:47:28.111Z,98880.84
2022-09-06T17:49:55.867Z,98884.94
2022-09-06T17:52:23.667Z,98892.00
2022-09-06T17:54:51.415Z,98880.19
2022-09-06T17:57:19.200Z,98889.31
2022-09-06T17:59:47.323Z,98888.44
2022-09-06T18:02:15.121Z,98893.84
2022-09-06T18:04:44.462Z,98888.06
2022-09-06T18:07:12.314Z,98883.66
2022-09-06T18:09:41.565Z,98886.06
2022-09-06T18:12:09.486Z,98891.63
2022-09-06T18:14:37.565Z,98903.00
2022-09-06T18:17:05.519Z,98897.84
2022-09-06T18:19:33.362Z,98901.06
2022-09-06T18:22:02.555Z,98908.44
2022-09-06T18:24:30.417Z,98911.44
2022-09-06T18:26:58.172Z,98905.56
2022-09-06T18:29:25.964Z,98908.44
2022-09-06T18:31:54.443Z,98902.59
2022-09-06T18:34:22.591Z,98901.44
2022-09-06T18:36:50.473Z,98911.53
2022-09-06T18:39:20.766Z,98910.03
2022-09-06T18:42:01.097Z,98903.53
2022-09-06T18:44:32.294Z,98903.09
2022-09-06T18:47:02.074Z,98905.09
2022-09-06T18:49:31.016Z,98905.09
2022-09-06T18:51:59.567Z,98905.06
2022-09-06T18:54:28.903Z,98901.22
2022-09-06T18:56:56.743Z,98901.81
2022-09-06T18:59:24.545Z,98898.94
2022-09-06T19:01:52.434Z,98902.53
2022-09-06T19:04:20.339Z,98904.34
2022-09-06T19:06:48.782Z,98907.75
2022-09-06T19:09:18.463Z,98915.56
2022-09-06T19:11:51.650Z,98919.50
2022-09-06T19:14:20.388Z,98916.91
2022-09-06T19:16:50.294Z,98912.22
2022-09-06T19:19:18.415Z,98914.81
2022-09-06T19:21:46.261Z,98900.59
2022-09-06T19:24:15.651Z,98900.38
2022-09-06T19:26:45.094Z,98909.91
2022-09-06T19:29:16.243Z,98900.59
2022-09-06T19:31:45.020Z,98900.66
2022-09-06T19:34:15.531Z,98899.59
2022-09-06T19:36:44.528Z,98900.13
2022-09-06T19:39:17.403Z,98902.97
2022-09-06T19:41:47.394Z,98893.38
2022-09-06T19:44:18.468Z,98892.59
2022-09-06T19:46:47.409Z,98903.47
2022-09-06T19:49:16.841Z,98904.97
2022-09-06T19:51:46.435Z,98887.66
2022-09-06T19:54:15.585Z,98893.56
2022-09-06T19:56:44.972Z,98893.50
2022-09-06T19:59:13.970Z,98892.75
2022-09-06T20:01:45.426Z,98889.09
2022-09-06T20:04:14.458Z,98881.78
2022-09-06T20:06:42.872Z,98889.09
2022-09-06T20:09:11.982Z,98891.28
2022-09-06T20:11:41.310Z,98890.09
2022-09-06T20:14:10.416Z,98881.75
2022-09-06T20:16:41.697Z,98885.69
2022-09-06T20:19:13.040Z,98877.06
2022-09-06T20:21:40.994Z,98877.25
2022-09-06T20:24:09.364Z,98868.75
2022-09-06T20:26:37.783Z,98878.53
2022-09-06T20:29:06.617Z,98878.41
2022-09-06T20:31:35.089Z,98876.84
2022-09-06T20:34:04.282Z,98872.56
2022-09-06T20:36:33.766Z,98874.34
2022-09-06T20:39:02.064Z,98874.47
2022-09-06T20:41:30.137Z,98868.28
2022-09-06T20:43:59.495Z,98866.00
2022-09-06T20:46:29.076Z,98868.03
2022-09-06T20:48:58.257Z,98856.81
2022-09-06T20:51:26.566Z,98864.13
2022-09-06T20:53:58.572Z,98866.09
2022-09-06T20:56:29.383Z,98868.88
2022-09-06T20:58:59.488Z,98870.88
2022-09-06T21:01:29.129Z,98866.84
2022-09-06T21:03:59.347Z,98855.38
2022-09-06T21:06:28.994Z,98869.72
2022-09-06T21:08:58.623Z,98870.22
2022-09-06T21:11:26.952Z,98873.81
2022-09-06T21:13:56.789Z,98884.75
2022-09-06T21:16:26.360Z,98886.69
2022-09-06T21:18:55.576Z,98892.72
2022-09-06T21:21:23.569Z,98891.00
2022-09-06T21:23:51.362Z,98889.75
2022-09-06T21:26:21.743Z,98888.63
2022-09-06T21:28:50.257Z,98897.84
2022-09-06T21:31:21.880Z,98895.66
2022-09-06T21:33:52.587Z,98889.59
2022-09-06T21:36:22.394Z,98894.28
2022-09-06T21:38:53.420Z,98898.31
2022-09-06T21:41:23.596Z,98893.56
2022-09-06T21:43:53.776Z,98897.13
2022-09-06T21:46:22.891Z,98892.38
2022-09-06T21:48:52.734Z,98889.56
2022-09-06T21:51:22.598Z,98885.44
2022-09-06T21:53:52.477Z,98890.91
2022-09-06T21:56:23.772Z,98885.44
2022-09-06T21:58:52.495Z,98882.63
2022-09-06T22:01:20.484Z,98891.53
2022-09-06T22:03:48.532Z,98894.44
2022-09-06T22:06:18.258Z,98895.69
2022-09-06T22:08:46.330Z,98901.09
2022-09-06T22:11:16.307Z,98889.38
2022-09-06T22:13:46.814Z,98890.00
2022-09-06T22:16:15.439Z,98888.84
2022-09-06T22:18:44.884Z,98892.91
2022-09-06T22:21:18.447Z,98890.00
2022-09-06T22:23:51.130Z,98879.53
2022-09-06T22:26:19.736Z,98879.66
2022-09-06T22:28:49.301Z,98880.03
2022-09-06T22:31:17.075Z,98883.41
2022-09-06T22:33:44.935Z,98891.13
2022-09-06T22:36:12.764Z,98895.03
2022-09-06T22:38:40.590Z,98894.69
2022-09-06T22:41:09.335Z,98891.91
2022-09-06T22:43:37.167Z,98882.31
2022-09-06T22:46:08.143Z,98889.13
2022-09-06T22:48:36.866Z,98883.91
2022-09-06T22:51:06.234Z,98875.09
2022-09-06T22:53:34.988Z,98861.13
2022-09-06T22:56:03.664Z,98858.63
2022-09-06T22:58:31.947Z,98860.22
2022-09-06T23:01:08.910Z,98854.19
2022-09-06T23:03:37.790Z,98844.22
2022-09-06T23:06:06.254Z,98855.47
2022-09-06T23:08:35.433Z,98839.63
2022-09-06T23:11:06.186Z,98844.38
2022-09-06T23:13:34.198Z,98830.31
2022-09-06T23:16:08.333Z,98830.78
2022-09-06T23:18:36.182Z,98842.88
2022-09-06T23:21:06.076Z,98837.91
2022-09-06T23:23:33.901Z,98835.09
2022-09-06T23:26:06.258Z,98836.53
2022-09-06T23:28:34.132Z,98836.75
2022-09-06T23:31:07.595Z,98834.88
2022-09-06T23:33:36.245Z,98833.88
2022-09-06T23:36:04.836Z,98833.69
2022-09-06T23:38:33.682Z,98838.72
2022-09-06T23:41:02.127Z,98845.16
2022-09-06T23:43:30.329Z,98845.44
2022-09-06T23:45:58.508Z,98841.69
2022-09-06T23:48:27.760Z,98835.94
2022-09-06T23:50:55.604Z,98834.41
2022-09-06T23:53:23.906Z,98836.34
2022-09-06T23:55:51.752Z,98836.81
2022-09-06T23:58:19.641Z,98828.47
